sensor_id;sensor_type;location;lat;lon;timestamp;pressure;altitude;pressure_sealevel;temperature;humidity
32933;BME280;19444;50.518;10.870;2024-02-21T00:01:03;97241.06;;;7.72;100.00
32933;BME280;19444;50.518;10.870;2024-02-21T00:04:01;97230.16;;;7.58;100.00
32933;BME280;19444;50.518;10.870;2024-02-21T00:06:59;97224.88;;;7.17;100.00
32933;BME280;19444;50.518;10.870;2024-02-21T00:09:56;97222.16;;;7.53;100.00
32933;BME280;19444;50.518;10.870;2024-02-21T00:12:53;97213.59;;;7.71;100.00
32933;BME280;19444;50.518;10.870;2024-02-21T00:15:50;97200.91;;;7.07;100.00
32933;BME280;19444;50.518;10.870;2024-02-21T00:18:47;97207.72;;;7.64;100.00
32933;BME280;19444;50.518;10.870;2024-02-21T00:21:44;97198.44;;;7.46;100.00
32933;BME280;19444;50.518;10.870;2024-02-21T00:24:41;97198.09;;;7.73;100.00
32933;BME280;19444;50.518;10.870;2024-02-21T00:27:38;97198.19;;;7.37;100.00
32933;BME280;19444;50.518;10.870;2024-02-21T00:30:38;97186.41;;;7.64;100.00
32933;BME280;19444;50.518;10.870;2024-02-21T00:33:35;97195.47;;;7.58;100.00
32933;BME280;19444;50.518;10.870;2024-02-21T00:36:32;97201.94;;;6.85;100.00
32933;BME280;19444;50.518;10.870;2024-02-21T00:39:28;97199.03;;;7.23;100.00
32933;BME280;19444;50.518;10.870;2024-02-21T00:42:25;97195.81;;;7.26;100.00
32933;BME280;19444;50.518;10.870;2024-02-21T00:45:22;97200.63;;;7.24;100.00
32933;BME280;19444;50.518;10.870;2024-02-21T00:48:20;97189.69;;;7.25;100.00
32933;BME280;19444;50.518;10.870;2024-02-21T00:51:17;97187.94;;;7.75;100.00
32933;BME280;19444;50.518;10.870;2024-02-21T00:54:14;97187.47;;;7.63;100.00
32933;BME280;19444;50.518;10.870;2024-02-21T00:57:11;97187.75;;;7.61;100.00
32933;BME280;19444;50.518;10.870;2024-02-21T01:00:08;97185.94;;;7.41;100.00
32933;BME280;19444;50.518;10.870;2024-02-21T01:03:05;97181.69;;;7.20;100.00
32933;BME280;19444;50.518;10.870;2024-02-21T01:06:02;97181.69;;;7.25;100.00
32933;BME280;19444;50.518;10.870;2024-02-21T01:08:59;97177.97;;;7.01;100.00
32933;BME280;19444;50.518;10.870;2024-02-21T01:11:56;97178.66;;;7.62;100.00
32933;BME280;19444;50.518;10.870;2024-02-21T01:14:53;97180.28;;;7.53;100.00
32933;BME280;19444;50.518;10.870;2024-02-21T01:17:50;97182.72;;;7.39;100.00
32933;BME280;19444;50.518;10.870;2024-02-21T01:20:51;97182.75;;;7.24;100.00
32933;BME280;19444;50.518;10.870;2024-02-21T01:23:48;97174.72;;;7.29;100.00
32933;BME280;19444;50.518;10.870;2024-02-21T01:26:45;97181.69;;;7.20;100.00
32933;BME280;19444;50.518;10.870;2024-02-21T01:29:43;97173.13;;;7.28;100.00
32933;BME280;19444;50.518;10.870;2024-02-21T01:32:40;97163.13;;;7.80;100.00
32933;BME280;19444;50.518;10.870;2024-02-21T01:35:37;97161.78;;;7.77;100.00
32933;BME280;19444;50.518;10.870;2024-02-21T01:38:34;97161.59;;;7.68;100.00
32933;BME280;19444;50.518;10.870;2024-02-21T01:41:31;97148.25;;;7.68;100.00
32933;BME280;19444;50.518;10.870;2024-02-21T01:44:28;97149.63;;;7.51;100.00
32933;BME280;19444;50.518;10.870;2024-02-21T01:47:25;97145.91;;;7.52;100.00
32933;BME280;19444;50.518;10.870;2024-02-21T01:50:23;97151.50;;;7.40;100.00
32933;BME280;19444;50.518;10.870;2024-02-21T01:53:36;97143.03;;;7.33;100.00
32933;BME280;19444;50.518;10.870;2024-02-21T01:56:34;97135.81;;;7.28;100.00
32933;BME280;19444;50.518;10.870;2024-02-21T01:59:31;97138.91;;;7.66;100.00
32933;BME280;19444;50.518;10.870;2024-02-21T02:02:29;97132.06;;;7.39;100.00
32933;BME280;19444;50.518;10.870;2024-02-21T02:05:26;97117.41;;;7.37;100.00
32933;BME280;19444;50.518;10.870;2024-02-21T02:08:24;97104.09;;;7.32;100.00
32933;BME280;19444;50.518;10.870;2024-02-21T02:11:21;97089.94;;;7.41;100.00
32933;BME280;19444;50.518;10.870;2024-02-21T02:14:18;97081.00;;;7.66;100.00
32933;BME280;19444;50.518;10.870;2024-02-21T02:17:15;97077.91;;;7.98;100.00
32933;BME280;19444;50.518;10.870;2024-02-21T02:20:13;97077.13;;;7.44;100.00
32933;BME280;19444;50.518;10.870;2024-02-21T02:23:32;97070.59;;;7.70;100.00
32933;BME280;19444;50.518;10.870;2024-02-21T02:26:30;97080.56;;;7.49;100.00
32933;BME280;19444;50.518;10.870;2024-02-21T02:29:26;97082.03;;;7.01;100.00
32933;BME280;19444;50.518;10.870;2024-02-21T02:32:23;97080.44;;;7.00;100.00
32933;BME280;19444;50.518;10.870;2024-02-21T02:35:20;97074.63;;;6.77;100.00
32933;BME280;19444;50.518;10.870;2024-02-21T02:38:17;97061.72;;;7.20;100.00
32933;BME280;19444;50.518;10.870;2024-02-21T02:41:14;97052.75;;;6.96;100.00
32933;BME280;19444;50.518;10.870;2024-02-21T02:44:11;97054.88;;;6.99;100.00
32933;BME280;19444;50.518;10.870;2024-02-21T02:47:09;97054.28;;;7.17;100.00
32933;BME280;19444;50.518;10.870;2024-02-21T02:50:07;97056.25;;;6.81;100.00
32933;BME280;19444;50.518;10.870;2024-02-21T02:53:04;97070.03;;;7.08;100.00
32933;BME280;19444;50.518;10.870;2024-02-21T02:56:01;97067.69;;;6.66;100.00
32933;BME280;19444;50.518;10.870;2024-02-21T02:58:58;97061.81;;;6.84;100.00
32933;BME280;19444;50.518;10.870;2024-02-21T03:01:55;97064.00;;;6.62;100.00
32933;BME280;19444;50.518;10.870;2024-02-21T03:04:52;97065.84;;;6.62;100.00
32933;BME280;19444;50.518;10.870;2024-02-21T03:07:49;97075.69;;;6.81;100.00
32933;BME280;19444;50.518;10.870;2024-02-21T03:10:47;97071.09;;;7.02;100.00
32933;BME280;19444;50.518;10.870;2024-02-21T03:13:44;97063.47;;;6.35;100.00
32933;BME280;19444;50.518;10.870;2024-02-21T03:16:41;97057.03;;;6.81;100.00
32933;BME280;19444;50.518;10.870;2024-02-21T03:19:38;97051.72;;;6.71;100.00
32933;BME280;19444;50.518;10.870;2024-02-21T03:22:35;97039.94;;;6.93;100.00
32933;BME280;19444;50.518;10.870;2024-02-21T03:25:32;97048.16;;;7.17;100.00
32933;BME280;19444;50.518;10.870;2024-02-21T03:28:29;97049.53;;;6.94;100.00
32933;BME280;19444;50.518;10.870;2024-02-21T03:31:26;97051.13;;;7.00;100.00
32933;BME280;19444;50.518;10.870;2024-02-21T03:34:27;97045.84;;;6.74;100.00
32933;BME280;19444;50.518;10.870;2024-02-21T03:37:24;97043.72;;;6.87;100.00
32933;BME280;19444;50.518;10.870;2024-02-21T03:40:22;97045.59;;;6.71;100.00
32933;BME280;19444;50.518;10.870;2024-02-21T03:43:19;97048.25;;;6.76;100.00
32933;BME280;19444;50.518;10.870;2024-02-21T03:46:16;97044.75;;;6.96;100.00
32933;BME280;19444;50.518;10.870;2024-02-21T03:49:13;97049.78;;;7.02;100.00
32933;BME280;19444;50.518;10.870;2024-02-21T03:52:10;97040.81;;;6.78;100.00
32933;BME280;19444;50.518;10.870;2024-02-21T03:55:07;97039.09;;;7.18;100.00
32933;BME280;19444;50.518;10.870;2024-02-21T03:58:04;97036.81;;;6.70;100.00
32933;BME280;19444;50.518;10.870;2024-02-21T04:01:02;97030.41;;;6.87;100.00
32933;BME280;19444;50.518;10.870;2024-02-21T04:03:59;97022.84;;;7.09;100.00
32933;BME280;19444;50.518;10.870;2024-02-21T04:06:56;97009.25;;;7.10;100.00
32933;BME280;19444;50.518;10.870;2024-02-21T04:09:53;97013.31;;;6.93;100.00
32933;BME280;19444;50.518;10.870;2024-02-21T04:12:50;97011.75;;;6.81;100.00
32933;BME280;19444;50.518;10.870;2024-02-21T04:15:47;97001.06;;;6.97;100.00
32933;BME280;19444;50.518;10.870;2024-02-21T04:18:44;96997.38;;;6.77;100.00
32933;BME280;19444;50.518;10.870;2024-02-21T04:21:41;97000.50;;;6.95;100.00
32933;BME280;19444;50.518;10.870;2024-02-21T04:24:38;97000.81;;;6.83;100.00
32933;BME280;19444;50.518;10.870;2024-02-21T04:27:35;97003.66;;;7.12;100.00
32933;BME280;19444;50.518;10.870;2024-02-21T04:30:32;97006.44;;;6.71;100.00
32933;BME280;19444;50.518;10.870;2024-02-21T04:33:28;97006.13;;;6.98;100.00
32933;BME280;19444;50.518;10.870;2024-02-21T04:36:25;97008.59;;;6.69;100.00
32933;BME280;19444;50.518;10.870;2024-02-21T04:39:22;96996.59;;;6.72;100.00
32933;BME280;19444;50.518;10.870;2024-02-21T04:42:19;96992.47;;;7.10;100.00
32933;BME280;19444;50.518;10.870;2024-02-21T04:45:16;96980.53;;;6.97;100.00
32933;BME280;19444;50.518;10.870;2024-02-21T04:48:14;96970.97;;;6.96;100.00
32933;BME280;19444;50.518;10.870;2024-02-21T04:51:12;96979.38;;;7.24;100.00
32933;BME280;19444;50.518;10.870;2024-02-21T04:54:10;96989.81;;;7.10;100.00
32933;BME280;19444;50.518;10.870;2024-02-21T04:57:07;96991.63;;;7.20;100.00
32933;BME280;19444;50.518;10.870;2024-02-21T05:00:05;96989.38;;;6.82;100.00
32933;BME280;19444;50.518;10.870;2024-02-21T05:03:03;96980.59;;;6.82;100.00
32933;BME280;19444;50.518;10.870;2024-02-21T05:06:00;96971.09;;;7.20;100.00
32933;BME280;19444;50.518;10.870;2024-02-21T05:08:57;96965.31;;;7.03;100.00
32933;BME280;19444;50.518;10.870;2024-02-21T05:11:55;96968.34;;;6.86;100.00
32933;BME280;19444;50.518;10.870;2024-02-21T05:14:52;96971.03;;;7.35;100.00
32933;BME280;19444;50.518;10.870;2024-02-21T05:17:48;96964.41;;;7.28;100.00
32933;BME280;19444;50.518;10.870;2024-02-21T05:20:46;96959.50;;;7.45;100.00
32933;BME280;19444;50.518;10.870;2024-02-21T05:23:43;96954.31;;;7.20;100.00
32933;BME280;19444;50.518;10.870;2024-02-21T05:26:39;96942.91;;;7.09;100.00
32933;BME280;19444;50.518;10.870;2024-02-21T05:29:37;96940.47;;;7.18;100.00
32933;BME280;19444;50.518;10.870;2024-02-21T05:32:34;96936.28;;;7.01;100.00
32933;BME280;19444;50.518;10.870;2024-02-21T05:35:30;96935.34;;;6.77;100.00
32933;BME280;19444;50.518;10.870;2024-02-21T05:38:27;96942.13;;;7.03;100.00
32933;BME280;19444;50.518;10.870;2024-02-21T05:41:24;96943.47;;;7.01;100.00
32933;BME280;19444;50.518;10.870;2024-02-21T05:44:22;96943.47;;;7.06;100.00
32933;BME280;19444;50.518;10.870;2024-02-21T05:47:19;96927.59;;;6.75;100.00
32933;BME280;19444;50.518;10.870;2024-02-21T05:50:17;96931.22;;;7.00;100.00
32933;BME280;19444;50.518;10.870;2024-02-21T05:53:14;96931.22;;;7.00;100.00
32933;BME280;19444;50.518;10.870;2024-02-21T05:56:12;96948.09;;;6.80;100.00
32933;BME280;19444;50.518;10.870;2024-02-21T05:59:09;96947.63;;;6.68;100.00
32933;BME280;19444;50.518;10.870;2024-02-21T06:02:06;96957.41;;;6.82;100.00
32933;BME280;19444;50.518;10.870;2024-02-21T06:05:03;96958.25;;;6.57;100.00
32933;BME280;19444;50.518;10.870;2024-02-21T06:08:04;96951.22;;;6.97;100.00
32933;BME280;19444;50.518;10.870;2024-02-21T06:11:02;96942.00;;;6.69;100.00
32933;BME280;19444;50.518;10.870;2024-02-21T06:13:59;96929.59;;;7.04;100.00
32933;BME280;19444;50.518;10.870;2024-02-21T06:16:56;96933.47;;;7.32;100.00
32933;BME280;19444;50.518;10.870;2024-02-21T06:19:53;96929.06;;;7.02;100.00
32933;BME280;19444;50.518;10.870;2024-02-21T06:22:50;96938.72;;;6.93;100.00
32933;BME280;19444;50.518;10.870;2024-02-21T06:25:46;96941.66;;;6.96;100.00
32933;BME280;19444;50.518;10.870;2024-02-21T06:28:44;96939.88;;;6.66;100.00
32933;BME280;19444;50.518;10.870;2024-02-21T06:31:43;96938.22;;;6.80;100.00
32933;BME280;19444;50.518;10.870;2024-02-21T06:34:40;96941.19;;;6.74;100.00
32933;BME280;19444;50.518;10.870;2024-02-21T06:37:37;96952.94;;;6.57;100.00
32933;BME280;19444;50.518;10.870;2024-02-21T06:40:35;96944.13;;;6.77;100.00
32933;BME280;19444;50.518;10.870;2024-02-21T06:43:36;96945.91;;;6.92;100.00
32933;BME280;19444;50.518;10.870;2024-02-21T06:46:33;96937.09;;;6.97;100.00
32933;BME280;19444;50.518;10.870;2024-02-21T06:49:30;96930.19;;;6.96;100.00
32933;BME280;19444;50.518;10.870;2024-02-21T06:52:27;96938.31;;;6.60;100.00
32933;BME280;19444;50.518;10.870;2024-02-21T06:55:24;96934.41;;;7.02;100.00
32933;BME280;19444;50.518;10.870;2024-02-21T06:58:21;96929.88;;;7.02;100.00
32933;BME280;19444;50.518;10.870;2024-02-21T07:01:18;96928.97;;;6.63;100.00
32933;BME280;19444;50.518;10.870;2024-02-21T07:04:15;96937.44;;;6.80;100.00
32933;BME280;19444;50.518;10.870;2024-02-21T07:07:12;96934.00;;;6.74;100.00
32933;BME280;19444;50.518;10.870;2024-02-21T07:10:10;96923.50;;;6.98;100.00
32933;BME280;19444;50.518;10.870;2024-02-21T07:13:07;96935.09;;;6.68;100.00
32933;BME280;19444;50.518;10.870;2024-02-21T07:16:05;96923.66;;;6.68;100.00
32933;BME280;19444;50.518;10.870;2024-02-21T07:19:02;96930.81;;;6.67;100.00
32933;BME280;19444;50.518;10.870;2024-02-21T07:22:00;96915.38;;;6.64;100.00
32933;BME280;19444;50.518;10.870;2024-02-21T07:24:56;96912.91;;;6.83;100.00
32933;BME280;19444;50.518;10.870;2024-02-21T07:27:53;96913.38;;;7.00;100.00
32933;BME280;19444;50.518;10.870;2024-02-21T07:30:50;96900.34;;;6.94;100.00
32933;BME280;19444;50.518;10.870;2024-02-21T07:33:47;96899.25;;;6.95;100.00
32933;BME280;19444;50.518;10.870;2024-02-21T07:36:44;96892.38;;;6.89;100.00
32933;BME280;19444;50.518;10.870;2024-02-21T07:39:42;96895.56;;;6.91;100.00
32933;BME280;19444;50.518;10.870;2024-02-21T07:42:39;96898.06;;;6.67;100.00
32933;BME280;19444;50.518;10.870;2024-02-21T07:45:36;96899.88;;;6.87;100.00
32933;BME280;19444;50.518;10.870;2024-02-21T07:48:33;96908.31;;;6.94;100.00
32933;BME280;19444;50.518;10.870;2024-02-21T07:51:31;96906.84;;;6.72;100.00
32933;BME280;19444;50.518;10.870;2024-02-21T07:54:28;96920.16;;;6.77;100.00
32933;BME280;19444;50.518;10.870;2024-02-21T07:57:25;96921.13;;;6.97;100.00
32933;BME280;19444;50.518;10.870;2024-02-21T08:00:22;96917.00;;;7.20;100.00
32933;BME280;19444;50.518;10.870;2024-02-21T08:03:19;96919.22;;;7.02;100.00
32933;BME280;19444;50.518;10.870;2024-02-21T08:06:17;96918.47;;;6.92;100.00
32933;BME280;19444;50.518;10.870;2024-02-21T08:09:14;96911.53;;;6.96;100.00
32933;BME280;19444;50.518;10.870;2024-02-21T08:12:11;96911.88;;;6.79;100.00
32933;BME280;19444;50.518;10.870;2024-02-21T08:15:08;96903.53;;;6.96;100.00
32933;BME280;19444;50.518;10.870;2024-02-21T08:18:08;96901.06;;;7.09;100.00
32933;BME280;19444;50.518;10.870;2024-02-21T08:21:05;96903.78;;;7.04;100.00
32933;BME280;19444;50.518;10.870;2024-02-21T08:24:02;96900.91;;;6.91;100.00
32933;BME280;19444;50.518;10.870;2024-02-21T08:26:59;96895.84;;;6.89;100.00
32933;BME280;19444;50.518;10.870;2024-02-21T08:29:56;96895.28;;;6.97;100.00
32933;BME280;19444;50.518;10.870;2024-02-21T08:32:53;96876.84;;;7.06;100.00
32933;BME280;19444;50.518;10.870;2024-02-21T08:35:53;96872.59;;;7.00;100.00
32933;BME280;19444;50.518;10.870;2024-02-21T08:38:50;96868.09;;;7.39;100.00
32933;BME280;19444;50.518;10.870;2024-02-21T08:41:47;96871.25;;;7.02;100.00
32933;BME280;19444;50.518;10.870;2024-02-21T08:44:53;96869.66;;;7.06;100.00
32933;BME280;19444;50.518;10.870;2024-02-21T08:47:50;96872.75;;;7.19;100.00
32933;BME280;19444;50.518;10.870;2024-02-21T08:50:47;96883.94;;;6.71;100.00
32933;BME280;19444;50.518;10.870;2024-02-21T08:53:47;96893.19;;;6.89;100.00
32933;BME280;19444;50.518;10.870;2024-02-21T08:56:44;96885.00;;;7.20;100.00
32933;BME280;19444;50.518;10.870;2024-02-21T08:59:41;96878.88;;;7.24;100.00
32933;BME280;19444;50.518;10.870;2024-02-21T09:02:42;96888.53;;;7.10;100.00
32933;BME280;19444;50.518;10.870;2024-02-21T09:05:42;96885.13;;;6.99;100.00
32933;BME280;19444;50.518;10.870;2024-02-21T09:08:39;96873.53;;;7.24;100.00
32933;BME280;19444;50.518;10.870;2024-02-21T09:11:36;96867.50;;;7.08;100.00
32933;BME280;19444;50.518;10.870;2024-02-21T09:14:33;96861.38;;;7.08;100.00
32933;BME280;19444;50.518;10.870;2024-02-21T09:17:30;96853.88;;;7.15;100.00
32933;BME280;19444;50.518;10.870;2024-02-21T09:20:28;96847.41;;;7.21;100.00
32933;BME280;19444;50.518;10.870;2024-02-21T09:23:26;96843.19;;;7.54;100.00
32933;BME280;19444;50.518;10.870;2024-02-21T09:26:23;96837.88;;;7.49;100.00
32933;BME280;19444;50.518;10.870;2024-02-21T09:29:19;96837.31;;;7.86;100.00
32933;BME280;19444;50.518;10.870;2024-02-21T09:32:21;96835.16;;;7.20;100.00
32933;BME280;19444;50.518;10.870;2024-02-21T09:35:18;96837.22;;;7.33;100.00
32933;BME280;19444;50.518;10.870;2024-02-21T09:38:15;96831.41;;;7.89;100.00
32933;BME280;19444;50.518;10.870;2024-02-21T09:41:26;96821.97;;;7.68;100.00
32933;BME280;19444;50.518;10.870;2024-02-21T09:44:24;96840.19;;;7.61;100.00
32933;BME280;19444;50.518;10.870;2024-02-21T09:47:57;96841.50;;;6.90;100.00
32933;BME280;19444;50.518;10.870;2024-02-21T09:50:59;96835.88;;;6.37;100.00
32933;BME280;19444;50.518;10.870;2024-02-21T09:53:57;96844.50;;;6.78;100.00
32933;BME280;19444;50.518;10.870;2024-02-21T09:57:11;96829.31;;;6.79;100.00
32933;BME280;19444;50.518;10.870;2024-02-21T10:00:09;96827.16;;;6.76;100.00
32933;BME280;19444;50.518;10.870;2024-02-21T10:03:06;96826.28;;;6.36;100.00
32933;BME280;19444;50.518;10.870;2024-02-21T10:06:04;96825.78;;;6.89;100.00
32933;BME280;19444;50.518;10.870;2024-02-21T10:09:01;96825.72;;;6.99;100.00
32933;BME280;19444;50.518;10.870;2024-02-21T10:12:09;96821.69;;;7.01;100.00
32933;BME280;19444;50.518;10.870;2024-02-21T10:15:08;96821.75;;;6.91;100.00
32933;BME280;19444;50.518;10.870;2024-02-21T10:18:05;96821.75;;;6.91;100.00
32933;BME280;19444;50.518;10.870;2024-02-21T10:21:07;96806.50;;;7.41;100.00
32933;BME280;19444;50.518;10.870;2024-02-21T10:24:05;96812.94;;;7.35;100.00
32933;BME280;19444;50.518;10.870;2024-02-21T10:27:06;96814.31;;;7.61;100.00
32933;BME280;19444;50.518;10.870;2024-02-21T10:30:12;96803.91;;;7.31;100.00
32933;BME280;19444;50.518;10.870;2024-02-21T10:33:09;96799.09;;;7.33;100.00
32933;BME280;19444;50.518;10.870;2024-02-21T10:36:08;96796.13;;;7.68;100.00
32933;BME280;19444;50.518;10.870;2024-02-21T10:39:06;96790.16;;;7.48;100.00
32933;BME280;19444;50.518;10.870;2024-02-21T10:42:04;96790.88;;;7.87;100.00
32933;BME280;19444;50.518;10.870;2024-02-21T10:45:01;96794.66;;;8.29;100.00
32933;BME280;19444;50.518;10.870;2024-02-21T10:48:14;96784.06;;;8.00;100.00
32933;BME280;19444;50.518;10.870;2024-02-21T10:51:18;96790.63;;;8.32;100.00
32933;BME280;19444;50.518;10.870;2024-02-21T10:54:48;96790.19;;;8.01;100.00
32933;BME280;19444;50.518;10.870;2024-02-21T10:57:50;96785.19;;;7.70;100.00
32933;BME280;19444;50.518;10.870;2024-02-21T11:00:49;96773.84;;;7.54;100.00
32933;BME280;19444;50.518;10.870;2024-02-21T11:03:49;96767.41;;;8.32;100.00
32933;BME280;19444;50.518;10.870;2024-02-21T11:06:47;96763.38;;;8.11;100.00
32933;BME280;19444;50.518;10.870;2024-02-21T11:09:52;96750.22;;;8.43;100.00
32933;BME280;19444;50.518;10.870;2024-02-21T11:13:08;96748.78;;;8.89;100.00
32933;BME280;19444;50.518;10.870;2024-02-21T11:16:11;96733.97;;;10.44;100.00
32933;BME280;19444;50.518;10.870;2024-02-21T11:19:21;96730.69;;;9.92;100.00
32933;BME280;19444;50.518;10.870;2024-02-21T11:22:20;96712.38;;;9.99;100.00
32933;BME280;19444;50.518;10.870;2024-02-21T11:25:23;96721.50;;;9.38;100.00
32933;BME280;19444;50.518;10.870;2024-02-21T11:28:26;96714.31;;;8.87;100.00
32933;BME280;19444;50.518;10.870;2024-02-21T11:31:23;96707.91;;;9.81;100.00
32933;BME280;19444;50.518;10.870;2024-02-21T11:34:20;96703.50;;;9.44;100.00
32933;BME280;19444;50.518;10.870;2024-02-21T11:37:17;96692.03;;;10.98;100.00
32933;BME280;19444;50.518;10.870;2024-02-21T11:40:14;96691.13;;;10.16;100.00
32933;BME280;19444;50.518;10.870;2024-02-21T11:43:11;96683.47;;;10.37;100.00
32933;BME280;19444;50.518;10.870;2024-02-21T11:46:08;96686.50;;;9.81;100.00
32933;BME280;19444;50.518;10.870;2024-02-21T11:49:06;96682.81;;;9.63;100.00
32933;BME280;19444;50.518;10.870;2024-02-21T11:52:04;96672.16;;;9.30;100.00
32933;BME280;19444;50.518;10.870;2024-02-21T11:55:01;96666.25;;;10.88;100.00
32933;BME280;19444;50.518;10.870;2024-02-21T11:58:02;96674.19;;;10.07;100.00
32933;BME280;19444;50.518;10.870;2024-02-21T12:00:59;96655.53;;;10.16;100.00
32933;BME280;19444;50.518;10.870;2024-02-21T12:03:59;96650.88;;;9.66;100.00
32933;BME280;19444;50.518;10.870;2024-02-21T12:07:00;96646.72;;;9.33;100.00
32933;BME280;19444;50.518;10.870;2024-02-21T12:09:59;96646.31;;;9.26;100.00
32933;BME280;19444;50.518;10.870;2024-02-21T12:13:08;96637.31;;;9.49;100.00
32933;BME280;19444;50.518;10.870;2024-02-21T12:16:05;96635.91;;;8.78;100.00
32933;BME280;19444;50.518;10.870;2024-02-21T12:19:02;96632.66;;;9.55;100.00
32933;BME280;19444;50.518;10.870;2024-02-21T12:22:00;96614.50;;;10.43;100.00
32933;BME280;19444;50.518;10.870;2024-02-21T12:24:58;96607.75;;;10.45;100.00
32933;BME280;19444;50.518;10.870;2024-02-21T12:27:55;96599.44;;;11.00;98.51
32933;BME280;19444;50.518;10.870;2024-02-21T12:30:53;96587.22;;;10.63;100.00
32933;BME280;19444;50.518;10.870;2024-02-21T12:33:50;96597.59;;;10.87;100.00
32933;BME280;19444;50.518;10.870;2024-02-21T12:36:48;96590.81;;;10.81;100.00
32933;BME280;19444;50.518;10.870;2024-02-21T12:39:46;96593.78;;;9.85;100.00
32933;BME280;19444;50.518;10.870;2024-02-21T12:42:43;96582.97;;;11.16;100.00
32933;BME280;19444;50.518;10.870;2024-02-21T12:45:40;96593.44;;;10.72;100.00
32933;BME280;19444;50.518;10.870;2024-02-21T12:48:37;96589.91;;;9.91;100.00
32933;BME280;19444;50.518;10.870;2024-02-21T12:51:34;96589.38;;;10.03;100.00
32933;BME280;19444;50.518;10.870;2024-02-21T12:54:31;96570.88;;;10.51;100.00
32933;BME280;19444;50.518;10.870;2024-02-21T12:57:28;96568.81;;;9.89;100.00
32933;BME280;19444;50.518;10.870;2024-02-21T13:00:25;96555.19;;;10.58;100.00
32933;BME280;19444;50.518;10.870;2024-02-21T13:03:24;96542.53;;;10.14;100.00
32933;BME280;19444;50.518;10.870;2024-02-21T13:06:21;96545.59;;;9.98;100.00
32933;BME280;19444;50.518;10.870;2024-02-21T13:09:18;96537.22;;;9.64;100.00
32933;BME280;19444;50.518;10.870;2024-02-21T13:12:15;96546.28;;;9.27;100.00
32933;BME280;19444;50.518;10.870;2024-02-21T13:15:12;96538.84;;;9.51;100.00
32933;BME280;19444;50.518;10.870;2024-02-21T13:18:09;96541.13;;;9.17;100.00
32933;BME280;19444;50.518;10.870;2024-02-21T13:21:07;96525.91;;;9.81;100.00
32933;BME280;19444;50.518;10.870;2024-02-21T13:24:04;96517.09;;;10.03;100.00
32933;BME280;19444;50.518;10.870;2024-02-21T13:27:01;96524.88;;;9.54;100.00
32933;BME280;19444;50.518;10.870;2024-02-21T13:29:58;96522.78;;;10.23;100.00
32933;BME280;19444;50.518;10.870;2024-02-21T13:32:55;96519.84;;;9.75;100.00
32933;BME280;19444;50.518;10.870;2024-02-21T13:35:52;96504.81;;;9.65;100.00
32933;BME280;19444;50.518;10.870;2024-02-21T13:38:49;96500.88;;;9.63;100.00
32933;BME280;19444;50.518;10.870;2024-02-21T13:41:48;96501.19;;;9.48;100.00
32933;BME280;19444;50.518;10.870;2024-02-21T13:44:45;96504.19;;;9.68;100.00
32933;BME280;19444;50.518;10.870;2024-02-21T13:47:42;96508.72;;;9.04;100.00
32933;BME280;19444;50.518;10.870;2024-02-21T13:50:39;96501.00;;;10.16;100.00
32933;BME280;19444;50.518;10.870;2024-02-21T13:53:40;96503.88;;;9.84;100.00
32933;BME280;19444;50.518;10.870;2024-02-21T13:56:37;96498.84;;;9.68;100.00
32933;BME280;19444;50.518;10.870;2024-02-21T13:59:34;96498.66;;;9.79;100.00
32933;BME280;19444;50.518;10.870;2024-02-21T14:02:31;96489.25;;;9.67;100.00
32933;BME280;19444;50.518;10.870;2024-02-21T14:05:28;96491.13;;;10.03;100.00
32933;BME280;19444;50.518;10.870;2024-02-21T14:08:25;96494.34;;;9.91;100.00
32933;BME280;19444;50.518;10.870;2024-02-21T14:11:22;96483.59;;;9.69;100.00
32933;BME280;19444;50.518;10.870;2024-02-21T14:14:20;96477.88;;;9.62;100.00
32933;BME280;19444;50.518;10.870;2024-02-21T14:17:18;96483.22;;;9.62;100.00
32933;BME280;19444;50.518;10.870;2024-02-21T14:20:15;96476.25;;;9.75;100.00
32933;BME280;19444;50.518;10.870;2024-02-21T14:23:13;96469.53;;;10.00;100.00
32933;BME280;19444;50.518;10.870;2024-02-21T14:26:10;96458.69;;;10.05;100.00
32933;BME280;19444;50.518;10.870;2024-02-21T14:29:08;96461.47;;;9.77;100.00
32933;BME280;19444;50.518;10.870;2024-02-21T14:32:06;96447.28;;;9.77;100.00
32933;BME280;19444;50.518;10.870;2024-02-21T14:35:04;96447.97;;;9.82;100.00
32933;BME280;19444;50.518;10.870;2024-02-21T14:38:03;96440.56;;;9.43;100.00
32933;BME280;19444;50.518;10.870;2024-02-21T14:41:00;96436.41;;;9.73;100.00
32933;BME280;19444;50.518;10.870;2024-02-21T14:43:57;96425.50;;;9.47;100.00
32933;BME280;19444;50.518;10.870;2024-02-21T14:47:00;96419.63;;;9.81;100.00
32933;BME280;19444;50.518;10.870;2024-02-21T14:49:57;96419.47;;;9.41;100.00
32933;BME280;19444;50.518;10.870;2024-02-21T14:52:54;96415.09;;;9.09;100.00
32933;BME280;19444;50.518;10.870;2024-02-21T14:55:51;96416.03;;;9.86;100.00
32933;BME280;19444;50.518;10.870;2024-02-21T14:58:48;96396.94;;;10.01;100.00
32933;BME280;19444;50.518;10.870;2024-02-21T15:01:49;96396.91;;;9.70;100.00
32933;BME280;19444;50.518;10.870;2024-02-21T15:04:46;96394.94;;;9.84;100.00
32933;BME280;19444;50.518;10.870;2024-02-21T15:07:44;96391.66;;;9.29;100.00
32933;BME280;19444;50.518;10.870;2024-02-21T15:10:41;96398.13;;;9.14;100.00
32933;BME280;19444;50.518;10.870;2024-02-21T15:13:38;96385.44;;;9.56;100.00
32933;BME280;19444;50.518;10.870;2024-02-21T15:16:35;96383.69;;;9.51;100.00
32933;BME280;19444;50.518;10.870;2024-02-21T15:19:33;96373.81;;;9.38;100.00
32933;BME280;19444;50.518;10.870;2024-02-21T15:22:34;96378.75;;;9.08;100.00
32933;BME280;19444;50.518;10.870;2024-02-21T15:25:32;96371.81;;;9.44;100.00
32933;BME280;19444;50.518;10.870;2024-02-21T15:28:30;96365.44;;;9.53;100.00
32933;BME280;19444;50.518;10.870;2024-02-21T15:31:27;96357.78;;;9.38;100.00